createdAt,value
2022-12-09T00:00:24.311Z,95496.97
2022-12-09T00:01:25.786Z,95499.47
2022-12-09T00:02:30.240Z,95493.19
2022-12-09T00:03:32.216Z,95495.69
2022-12-09T00:04:33.980Z,95490.41
2022-12-09T00:05:38.718Z,95491.38
2022-12-09T00:06:40.194Z,95493.03
2022-12-09T00:07:41.872Z,95494.00
2022-12-09T00:08:44.253Z,95487.69
2022-12-09T00:09:45.869Z,95480.28
2022-12-09T00:10:50.998Z,95484.72
2022-12-09T00:11:52.887Z,95485.25
2022-12-09T00:12:56.320Z,95488.72
2022-12-09T00:14:00.112Z,95488.22
2022-12-09T00:15:01.555Z,95485.56
2022-12-09T00:16:12.563Z,95487.75
2022-12-09T00:17:14.236Z,95490.41
2022-12-09T00:18:15.707Z,95478.31
2022-12-09T00:19:17.337Z,95476.63
2022-12-09T00:20:18.909Z,95470.69
2022-12-09T00:21:25.779Z,95479.97
2022-12-09T00:22:28.874Z,95480.78
2022-12-09T00:23:30.255Z,95481.66
2022-12-09T00:24:32.419Z,95474.28
2022-12-09T00:25:34.240Z,95482.47
2022-12-09T00:26:35.866Z,95483.19
2022-12-09T00:27:37.336Z,95457.88
2022-12-09T00:28:43.136Z,95471.88
2022-12-09T00:29:44.621Z,95476.06
2022-12-09T00:30:46.036Z,95477.03
2022-12-09T00:31:47.662Z,95449.56
2022-12-09T00:32:49.315Z,95472.84
2022-12-09T00:33:52.703Z,95468.28
2022-12-09T00:34:54.436Z,95468.28
2022-12-09T00:35:56.041Z,95464.41
2022-12-09T00:36:57.618Z,95463.41
2022-12-09T00:37:59.553Z,95470.22
2022-12-09T00:39:01.426Z,95475.38
2022-12-09T00:40:03.455Z,95474.53
2022-12-09T00:41:06.027Z,95475.25
2022-12-09T00:42:07.483Z,95468.13
2022-12-09T00:43:09.259Z,95470.09
2022-12-09T00:44:11.828Z,95465.06
2022-12-09T00:45:13.162Z,95470.94
2022-12-09T00:46:15.295Z,95469.25
2022-12-09T00:47:16.931Z,95462.44
2022-12-09T00:48:18.546Z,95464.53
2022-12-09T00:49:20.241Z,95479.69
2022-12-09T00:50:22.141Z,95468.28
2022-12-09T00:51:25.259Z,95469.13
2022-12-09T00:52:26.835Z,95473.59
2022-12-09T00:53:28.648Z,95467.56
2022-12-09T00:54:30.194Z,95472.72
2022-12-09T00:55:31.839Z,95462.59
2022-12-09T00:56:33.406Z,95450.41
2022-12-09T00:57:34.837Z,95440.81
2022-12-09T00:58:38.741Z,95462.28
2022-12-09T00:59:40.137Z,95471.22
2022-12-09T01:00:41.949Z,95463.56
2022-12-09T01:01:43.480Z,95475.81
2022-12-09T01:02:45.383Z,95475.50
2022-12-09T01:03:46.946Z,95450.41
2022-12-09T01:04:52.267Z,95473.00
2022-12-09T01:05:55.367Z,95473.00
2022-12-09T01:07:01.010Z,95473.16
2022-12-09T01:08:02.648Z,95469.72
2022-12-09T01:09:04.209Z,95477.31
2022-12-09T01:10:07.340Z,95473.88
2022-12-09T01:11:21.066Z,95469.81
2022-12-09T01:12:22.717Z,95470.53
2022-12-09T01:13:24.339Z,95477.31
2022-12-09T01:14:25.825Z,95478.16
2022-12-09T01:15:28.862Z,95482.63
2022-12-09T01:16:32.782Z,95478.47
2022-12-09T01:17:37.046Z,95474.16
2022-12-09T01:18:38.962Z,95468.31
2022-12-09T01:19:41.332Z,95474.16
2022-12-09T01:20:42.815Z,95465.66
2022-12-09T01:21:44.450Z,95480.28
2022-12-09T01:22:50.621Z,95467.94
2022-12-09T01:23:55.749Z,95467.94
2022-12-09T01:24:57.266Z,95466.53
2022-12-09T01:25:58.632Z,95475.81
2022-12-09T01:27:00.281Z,95468.69
2022-12-09T01:28:01.833Z,95475.66
2022-12-09T01:29:04.306Z,95470.69
2022-12-09T01:30:08.539Z,95468.19
2022-12-09T01:31:18.836Z,95472.19
2022-12-09T01:32:20.486Z,95472.03
2022-12-09T01:33:22.213Z,95465.38
2022-12-09T01:34:23.993Z,95465.53
2022-12-09T01:35:25.626Z,95475.00
2022-12-09T01:36:29.926Z,95460.00
2022-12-09T01:37:38.386Z,95469.81
2022-12-09T01:38:40.176Z,95472.19
2022-12-09T01:39:41.668Z,95456.22
2022-12-09T01:40:47.175Z,95464.16
2022-12-09T01:41:54.323Z,95450.41
2022-12-09T01:42:55.958Z,95461.22
2022-12-09T01:44:18.103Z,95464.53
2022-12-09T01:45:19.837Z,95463.56
2022-12-09T01:46:21.701Z,95461.22
2022-12-09T01:47:23.673Z,95464.53
2022-12-09T01:48:32.242Z,95459.25
2022-12-09T01:49:43.179Z,95457.47
2022-12-09T01:50:49.650Z,95459.25
2022-12-09T01:52:24.294Z,95451.03
2022-12-09T01:53:29.599Z,95453.00
2022-12-09T01:54:32.596Z,95441.88
2022-12-09T01:55:39.262Z,95443.25
2022-12-09T01:56:41.572Z,95453.28
2022-12-09T01:57:45.138Z,95421.22
2022-12-09T01:58:47.890Z,95449.69
2022-12-09T01:59:49.950Z,95438.41
2022-12-09T02:00:54.471Z,95423.28
2022-12-09T02:01:59.476Z,95438.25
2022-12-09T02:03:02.294Z,95434.09
2022-12-09T02:04:05.086Z,95432.16
2022-12-09T02:05:07.489Z,95427.81
2022-12-09T02:06:09.166Z,95426.16
2022-12-09T02:07:10.755Z,95419.50
2022-12-09T02:08:14.619Z,95418.53
2022-12-09T02:09:16.408Z,95413.75
2022-12-09T02:10:18.810Z,95393.28
2022-12-09T02:11:44.157Z,95423.50
2022-12-09T02:13:20.406Z,95423.50
2022-12-09T02:14:30.169Z,95426.84
2022-12-09T02:15:57.521Z,95422.38
2022-12-09T02:17:32.493Z,95411.13
2022-12-09T02:19:03.770Z,95405.00
2022-12-09T02:20:05.899Z,95405.81
2022-12-09T02:21:25.647Z,95397.66
2022-12-09T02:22:32.992Z,95402.38
2022-12-09T02:23:41.380Z,95374.47
2022-12-09T02:25:03.938Z,95405.69
2022-12-09T02:26:26.724Z,95400.53
2022-12-09T02:27:51.056Z,95405.69
2022-12-09T02:29:22.951Z,95401.22
2022-12-09T02:30:37.131Z,95388.75
2022-12-09T02:32:07.507Z,95386.44
2022-12-09T02:33:43.702Z,95411.97
2022-12-09T02:35:18.636Z,95405.69
2022-12-09T02:36:24.535Z,95401.53
2022-12-09T02:37:37.109Z,95400.53
2022-12-09T02:38:41.102Z,95396.38
2022-12-09T02:39:51.001Z,95381.97
2022-12-09T02:41:04.284Z,95401.53
2022-12-09T02:42:09.158Z,95401.66
2022-12-09T02:43:16.717Z,95404.19
2022-12-09T02:44:23.023Z,95399.03
2022-12-09T02:45:30.033Z,95393.22
2022-12-09T02:46:34.609Z,95382.41
2022-12-09T02:47:41.578Z,95391.25
2022-12-09T02:48:49.547Z,95395.72
2022-12-09T02:49:56.786Z,95387.63
2022-12-09T02:50:59.393Z,95394.75
2022-12-09T02:52:03.542Z,95385.97
2022-12-09T02:53:08.679Z,95365.19
2022-12-09T02:54:15.402Z,95384.59
2022-12-09T02:55:19.377Z,95375.84
2022-12-09T02:56:22.500Z,95381.81
2022-12-09T02:57:29.093Z,95378.34
2022-12-09T02:58:30.535Z,95380.13
2022-12-09T02:59:32.170Z,95383.63
2022-12-09T03:00:34.022Z,95376.69
2022-12-09T03:01:43.378Z,95377.50
2022-12-09T03:02:49.869Z,95372.19
2022-12-09T03:03:53.858Z,95374.03
2022-12-09T03:05:04.521Z,95368.91
2022-12-09T03:06:10.498Z,95371.38
2022-12-09T03:07:18.851Z,95381.81
2022-12-09T03:08:30.679Z,95377.50
2022-12-09T03:09:38.718Z,95379.16
2022-12-09T03:11:08.332Z,95379.00
2022-12-09T03:12:12.825Z,95364.59
2022-12-09T03:13:30.518Z,95373.22
2022-12-09T03:14:38.882Z,95364.44
2022-12-09T03:15:48.749Z,95361.63
2022-12-09T03:17:01.417Z,95337.06
2022-12-09T03:18:09.270Z,95359.69
2022-12-09T03:19:31.597Z,95353.69
